sensor_id;sensor_type;location;lat;lon;timestamp;P1;P4;P2;P0;N10;N4;N25;N1;N05;TS
78736;SPS30;68349;52.124;5.404;2023-05-16T00:01:46;5.59;4.99;3.75;2.13;17.18;17.10;16.77;15.17;10.65;0.90
78736;SPS30;68349;52.124;5.404;2023-05-16T00:04:13;6.79;6.03;4.48;2.46;19.85;19.76;19.34;17.34;11.88;0.92
78736;SPS30;68349;52.124;5.404;2023-05-16T00:06:40;6.08;5.41;4.06;2.30;18.51;18.43;18.07;16.32;11.41;0.89
78736;SPS30;68349;52.124;5.404;2023-05-16T00:09:07;6.78;6.03;4.49;2.50;20.18;20.09;19.68;17.70;12.24;0.89
78736;SPS30;68349;52.124;5.404;2023-05-16T00:11:33;6.58;5.85;4.36;2.43;19.60;19.51;19.11;17.19;11.89;0.90
78736;SPS30;68349;52.124;5.404;2023-05-16T00:14:00;6.50;5.79;4.34;2.44;19.67;19.58;19.19;17.31;12.06;0.90
78736;SPS30;68349;52.124;5.404;2023-05-16T00:16:27;5.81;5.18;3.90;2.22;17.89;17.81;17.47;15.81;11.11;0.89
78736;SPS30;68349;52.124;5.404;2023-05-16T00:18:55;5.86;5.25;3.99;2.34;18.82;18.74;18.41;16.77;12.00;0.87
78736;SPS30;68349;52.124;5.404;2023-05-16T00:21:26;6.10;5.43;4.05;2.27;18.28;18.20;17.83;16.06;11.14;0.89
78736;SPS30;68349;52.124;5.404;2023-05-16T00:23:53;6.55;5.84;4.39;2.50;20.16;20.07;19.68;17.81;12.51;0.87
78736;SPS30;68349;52.124;5.404;2023-05-16T00:26:20;6.08;5.43;4.10;2.37;19.08;19.00;18.65;16.93;12.00;0.87
78736;SPS30;68349;52.124;5.404;2023-05-16T00:28:47;6.07;5.41;4.07;2.31;18.64;18.55;18.20;16.46;11.54;0.88
78736;SPS30;68349;52.124;5.404;2023-05-16T00:31:13;7.29;6.47;4.81;2.65;21.41;21.31;20.87;18.73;12.87;0.91
78736;SPS30;68349;52.124;5.404;2023-05-16T00:33:40;6.45;5.74;4.29;2.41;19.41;19.33;18.94;17.07;11.86;0.89
78736;SPS30;68349;52.124;5.404;2023-05-16T00:36:06;5.81;5.19;3.92;2.27;18.27;18.19;17.86;16.22;11.50;0.87
78736;SPS30;68349;52.124;5.404;2023-05-16T00:38:33;6.27;5.58;4.17;2.33;18.83;18.75;18.37;16.55;11.50;0.90
78736;SPS30;68349;52.124;5.404;2023-05-16T00:41:00;6.21;5.53;4.15;2.34;18.85;18.77;18.40;16.61;11.59;0.90
78736;SPS30;68349;52.124;5.404;2023-05-16T00:43:27;6.22;5.55;4.19;2.40;19.38;19.30;18.94;17.17;12.13;0.88
78736;SPS30;68349;52.124;5.404;2023-05-16T00:45:53;5.77;5.15;3.89;2.24;18.05;17.98;17.64;16.01;11.33;0.87
78736;SPS30;68349;52.124;5.404;2023-05-16T00:48:23;5.46;4.88;3.71;2.16;17.42;17.35;17.03;15.51;11.07;0.87
78736;SPS30;68349;52.124;5.404;2023-05-16T00:50:51;5.94;5.30;4.01;2.31;18.59;18.51;18.16;16.48;11.67;0.88
78736;SPS30;68349;52.124;5.404;2023-05-16T00:53:19;5.91;5.28;3.98;2.29;18.45;18.37;18.03;16.35;11.56;0.87
78736;SPS30;68349;52.124;5.404;2023-05-16T00:55:46;6.04;5.38;4.02;2.25;18.15;18.07;17.70;15.95;11.07;0.88
78736;SPS30;68349;52.124;5.404;2023-05-16T00:58:13;6.01;5.35;4.00;2.24;18.04;17.96;17.60;15.86;11.01;0.90
78736;SPS30;68349;52.124;5.404;2023-05-16T01:00:41;6.02;5.36;4.00;2.23;18.01;17.93;17.57;15.82;10.97;0.91
78736;SPS30;68349;52.124;5.404;2023-05-16T01:03:10;5.97;5.32;4.01;2.30;18.53;18.45;18.10;16.40;11.57;0.91
78736;SPS30;68349;52.124;5.404;2023-05-16T01:05:37;5.93;5.29;3.99;2.28;18.38;18.31;17.96;16.27;11.46;0.91
78736;SPS30;68349;52.124;5.404;2023-05-16T01:08:04;5.61;5.01;3.78;2.18;17.54;17.47;17.14;15.55;11.01;0.88
78736;SPS30;68349;52.124;5.404;2023-05-16T01:10:33;6.00;5.36;4.04;2.32;18.73;18.65;18.30;16.60;11.74;0.89
78736;SPS30;68349;52.124;5.404;2023-05-16T01:13:23;5.96;5.35;4.08;2.41;19.43;19.36;19.02;17.37;12.51;0.85
78736;SPS30;68349;52.124;5.404;2023-05-16T01:16:12;4.74;4.26;3.29;2.00;16.12;16.06;15.80;14.53;10.64;0.84
78736;SPS30;68349;52.124;5.404;2023-05-16T01:18:51;5.13;4.60;3.53;2.12;17.04;16.98;16.69;15.30;11.10;0.86
78736;SPS30;68349;52.124;5.404;2023-05-16T01:21:41;5.86;5.25;4.00;2.36;18.99;18.91;18.58;16.96;12.18;0.87
78736;SPS30;68349;52.124;5.404;2023-05-16T01:24:18;5.46;4.91;3.77;2.27;18.27;18.20;17.90;16.42;11.94;0.84
78736;SPS30;68349;52.124;5.404;2023-05-16T01:26:52;5.38;4.83;3.72;2.25;18.15;18.08;17.79;16.34;11.93;0.84
78736;SPS30;68349;52.124;5.404;2023-05-16T01:29:21;5.03;4.54;3.53;2.20;17.66;17.60;17.33;16.02;11.87;0.82
78736;SPS30;68349;52.124;5.404;2023-05-16T01:31:48;4.77;4.32;3.39;2.14;17.20;17.14;16.89;15.67;11.72;0.80
78736;SPS30;68349;52.124;5.404;2023-05-16T01:34:15;5.17;4.67;3.64;2.26;18.17;18.11;17.83;16.48;12.22;0.82
78736;SPS30;68349;52.124;5.404;2023-05-16T01:36:59;5.31;4.78;3.69;2.25;18.09;18.02;17.73;16.31;11.95;0.83
78736;SPS30;68349;52.124;5.404;2023-05-16T01:39:44;4.89;4.42;3.47;2.20;17.65;17.60;17.34;16.09;12.05;0.79
78736;SPS30;68349;52.124;5.404;2023-05-16T01:42:20;4.82;4.35;3.39;2.12;17.03;16.97;16.71;15.47;11.49;0.82
78736;SPS30;68349;52.124;5.404;2023-05-16T01:47:47;5.30;4.78;3.71;2.28;18.39;18.32;18.04;16.64;12.27;0.82
78736;SPS30;68349;52.124;5.404;2023-05-16T01:50:24;5.45;4.90;3.78;2.29;18.46;18.39;18.09;16.64;12.17;0.82
78736;SPS30;68349;52.124;5.404;2023-05-16T01:52:59;5.77;5.18;3.97;2.38;19.14;19.06;18.74;17.17;12.45;0.84
78736;SPS30;68349;52.124;5.404;2023-05-16T01:58:09;5.06;4.54;3.48;2.08;16.77;16.71;16.43;15.05;10.91;0.84
78736;SPS30;68349;52.124;5.404;2023-05-16T02:00:38;5.09;4.59;3.57;2.20;17.74;17.68;17.41;16.07;11.87;0.82
78736;SPS30;68349;52.124;5.404;2023-05-16T02:03:06;4.82;4.37;3.43;2.18;17.52;17.47;17.22;15.99;11.99;0.79
78736;SPS30;68349;52.124;5.404;2023-05-16T02:05:33;4.67;4.22;3.29;2.05;16.51;16.45;16.20;14.99;11.14;0.81
78736;SPS30;68349;52.124;5.404;2023-05-16T02:08:00;5.24;4.73;3.69;2.29;18.46;18.39;18.11;16.75;12.43;0.81
78736;SPS30;68349;52.124;5.404;2023-05-16T02:10:27;4.63;4.19;3.29;2.08;16.76;16.71;16.47;15.29;11.46;0.78
78736;SPS30;68349;52.124;5.404;2023-05-16T02:12:54;4.97;4.49;3.50;2.18;17.54;17.48;17.21;15.92;11.82;0.80
78736;SPS30;68349;52.124;5.404;2023-05-16T02:15:21;4.73;4.28;3.35;2.12;17.02;16.96;16.72;15.51;11.59;0.79
78736;SPS30;68349;52.124;5.404;2023-05-16T02:17:47;4.22;3.84;3.06;2.01;16.18;16.13;15.93;14.91;11.38;0.76
78736;SPS30;68349;52.124;5.404;2023-05-16T02:20:14;4.42;4.02;3.20;2.09;16.80;16.75;16.53;15.45;11.76;0.75
78736;SPS30;68349;52.124;5.404;2023-05-16T02:22:41;4.77;4.33;3.43;2.21;17.77;17.72;17.48;16.30;12.33;0.76
78736;SPS30;68349;52.124;5.404;2023-05-16T02:25:09;4.43;4.02;3.18;2.05;16.46;16.40;16.18;15.08;11.39;0.76
78736;SPS30;68349;52.124;5.404;2023-05-16T02:27:36;4.84;4.39;3.48;2.24;18.01;17.95;17.70;16.50;12.47;0.78
78736;SPS30;68349;52.124;5.404;2023-05-16T02:30:02;4.70;4.28;3.42;2.25;18.04;17.99;17.76;16.62;12.69;0.77
78736;SPS30;68349;52.124;5.404;2023-05-16T02:32:31;4.46;4.09;3.33;2.28;18.30;18.26;18.05;17.04;13.26;0.73
78736;SPS30;68349;52.124;5.404;2023-05-16T02:34:59;4.19;3.83;3.09;2.08;16.72;16.67;16.48;15.50;11.97;0.75
78736;SPS30;68349;52.124;5.404;2023-05-16T02:37:25;4.30;3.95;3.22;2.21;17.72;17.67;17.48;16.50;12.86;0.72
78736;SPS30;68349;52.124;5.404;2023-05-16T02:39:52;4.54;4.17;3.40;2.34;18.82;18.77;18.56;17.54;13.70;0.71
78736;SPS30;68349;52.124;5.404;2023-05-16T02:42:19;4.60;4.20;3.39;2.29;18.39;18.34;18.12;17.05;13.18;0.74
78736;SPS30;68349;52.124;5.404;2023-05-16T02:44:45;4.90;4.44;3.51;2.26;18.15;18.10;17.85;16.62;12.55;0.80
78736;SPS30;68349;52.124;5.404;2023-05-16T02:47:12;4.98;4.52;3.59;2.33;18.70;18.65;18.40;17.17;13.02;0.76
78736;SPS30;68349;52.124;5.404;2023-05-16T02:49:38;4.47;4.10;3.34;2.28;18.31;18.26;18.05;17.04;13.25;0.72
78736;SPS30;68349;52.124;5.404;2023-05-16T02:52:05;4.71;4.31;3.51;2.40;19.30;19.25;19.04;17.97;13.99;0.72
78736;SPS30;68349;52.124;5.404;2023-05-16T02:54:33;4.47;4.10;3.35;2.31;18.57;18.52;18.32;17.32;13.53;0.70
78736;SPS30;68349;52.124;5.404;2023-05-16T02:57:00;4.30;3.97;3.27;2.31;18.52;18.48;18.29;17.37;13.70;0.68
78736;SPS30;68349;52.124;5.404;2023-05-16T02:59:27;4.08;3.76;3.12;2.21;17.72;17.68;17.51;16.64;13.16;0.69
78736;SPS30;68349;52.124;5.404;2023-05-16T03:01:53;4.50;4.11;3.32;2.24;17.96;17.91;17.70;16.65;12.86;0.72
78736;SPS30;68349;52.124;5.404;2023-05-16T03:04:20;4.36;3.99;3.24;2.20;17.70;17.65;17.45;16.45;12.77;0.70
78736;SPS30;68349;52.124;5.404;2023-05-16T03:06:48;4.78;4.38;3.57;2.44;19.63;19.58;19.36;18.28;14.23;0.70
78736;SPS30;68349;52.124;5.404;2023-05-16T03:09:16;4.89;4.46;3.60;2.42;19.42;19.37;19.14;17.99;13.88;0.72
78736;SPS30;68349;52.124;5.404;2023-05-16T03:11:43;4.23;3.86;3.12;2.10;16.83;16.79;16.59;15.60;12.04;0.72
78736;SPS30;68349;52.124;5.404;2023-05-16T03:14:09;4.54;4.16;3.38;2.31;18.57;18.52;18.31;17.28;13.44;0.72
78736;SPS30;68349;52.124;5.404;2023-05-16T03:16:37;5.30;4.84;3.90;2.61;20.95;20.89;20.64;19.40;14.94;0.74
78736;SPS30;68349;52.124;5.404;2023-05-16T03:19:04;4.70;4.30;3.48;2.35;18.88;18.83;18.61;17.52;13.56;0.75
78736;SPS30;68349;52.124;5.404;2023-05-16T03:21:31;4.69;4.28;3.44;2.30;18.46;18.41;18.19;17.08;13.14;0.75
78736;SPS30;68349;52.124;5.404;2023-05-16T03:23:57;4.40;4.02;3.26;2.21;17.72;17.68;17.47;16.45;12.75;0.74
78736;SPS30;68349;52.124;5.404;2023-05-16T03:26:24;4.87;4.42;3.50;2.27;18.22;18.17;17.92;16.72;12.66;0.78
78736;SPS30;68349;52.124;5.404;2023-05-16T03:28:51;5.01;4.57;3.66;2.42;19.43;19.38;19.13;17.93;13.73;0.76
78736;SPS30;68349;52.124;5.404;2023-05-16T03:31:17;4.41;4.03;3.27;2.22;17.79;17.74;17.54;16.52;12.80;0.73
78736;SPS30;68349;52.124;5.404;2023-05-16T03:33:44;4.52;4.15;3.39;2.33;18.73;18.68;18.47;17.46;13.63;0.72
78736;SPS30;68349;52.124;5.404;2023-05-16T03:36:11;3.77;3.47;2.86;2.00;16.05;16.01;15.85;15.03;11.82;0.71
78736;SPS30;68349;52.124;5.404;2023-05-16T03:38:38;4.01;3.69;3.03;2.10;16.89;16.85;16.67;15.78;12.38;0.73
78736;SPS30;68349;52.124;5.404;2023-05-16T03:41:05;4.17;3.87;3.26;2.38;19.05;19.01;18.85;18.01;14.42;0.68
78736;SPS30;68349;52.124;5.404;2023-05-16T03:43:31;4.15;3.83;3.19;2.27;18.24;18.19;18.02;17.15;13.60;0.68
78736;SPS30;68349;52.124;5.404;2023-05-16T03:45:59;4.30;3.97;3.30;2.35;18.88;18.84;18.66;17.75;14.07;0.68
78736;SPS30;68349;52.124;5.404;2023-05-16T03:48:27;3.61;3.36;2.85;2.11;16.90;16.86;16.72;16.03;12.90;0.67
78736;SPS30;68349;52.124;5.404;2023-05-16T03:50:53;3.75;3.49;2.96;2.19;17.57;17.53;17.39;16.67;13.42;0.67
78736;SPS30;68349;52.124;5.404;2023-05-16T03:53:20;3.96;3.67;3.09;2.26;18.09;18.05;17.89;17.10;13.69;0.67
78736;SPS30;68349;52.124;5.404;2023-05-16T03:55:46;3.80;3.53;2.97;2.18;17.49;17.46;17.31;16.56;13.28;0.67
78736;SPS30;68349;52.124;5.404;2023-05-16T03:58:14;3.75;3.49;2.94;2.17;17.37;17.34;17.19;16.45;13.21;0.66
78736;SPS30;68349;52.124;5.404;2023-05-16T04:00:41;4.11;3.80;3.17;2.28;18.32;18.28;18.11;17.26;13.73;0.67
78736;SPS30;68349;52.124;5.404;2023-05-16T04:03:08;4.12;3.81;3.16;2.26;18.11;18.07;17.89;17.03;13.50;0.68
78736;SPS30;68349;52.124;5.404;2023-05-16T04:05:35;4.28;3.93;3.23;2.24;18.00;17.95;17.76;16.82;13.18;0.69
78736;SPS30;68349;52.124;5.404;2023-05-16T04:08:01;4.63;4.24;3.42;2.31;18.55;18.50;18.29;17.21;13.31;0.73
78736;SPS30;68349;52.124;5.404;2023-05-16T04:10:28;4.86;4.42;3.52;2.31;18.53;18.47;18.23;17.05;12.99;0.75
78736;SPS30;68349;52.124;5.404;2023-05-16T04:12:55;4.86;4.44;3.59;2.43;19.48;19.42;19.20;18.07;13.98;0.75
78736;SPS30;68349;52.124;5.404;2023-05-16T04:15:21;4.39;4.05;3.34;2.36;18.94;18.89;18.70;17.76;14.02;0.71
78736;SPS30;68349;52.124;5.404;2023-05-16T04:17:49;4.04;3.74;3.13;2.27;18.17;18.14;17.97;17.15;13.68;0.69
78736;SPS30;68349;52.124;5.404;2023-05-16T04:20:15;3.65;3.38;2.85;2.08;16.64;16.61;16.46;15.73;12.59;0.69
78736;SPS30;68349;52.124;5.404;2023-05-16T04:22:42;3.90;3.62;3.06;2.25;18.03;18.00;17.84;17.08;13.71;0.67
78736;SPS30;68349;52.124;5.404;2023-05-16T04:25:09;3.76;3.50;2.98;2.22;17.77;17.73;17.59;16.88;13.62;0.66
78736;SPS30;68349;52.124;5.404;2023-05-16T04:27:36;3.32;3.10;2.66;2.01;16.08;16.05;15.93;15.32;12.43;0.65
78736;SPS30;68349;52.124;5.404;2023-05-16T04:30:03;3.26;3.04;2.57;1.89;15.18;15.15;15.03;14.39;11.57;0.67
78736;SPS30;68349;52.124;5.404;2023-05-16T04:32:30;3.79;3.49;2.89;2.04;16.38;16.34;16.17;15.36;12.13;0.71
78736;SPS30;68349;52.124;5.404;2023-05-16T04:35:00;4.80;4.39;3.55;2.40;19.28;19.22;19.00;17.89;13.84;0.73
78736;SPS30;68349;52.124;5.404;2023-05-16T04:37:27;4.24;3.90;3.21;2.25;18.04;17.99;17.81;16.88;13.27;0.72
78736;SPS30;68349;52.124;5.404;2023-05-16T04:39:54;4.03;3.72;3.09;2.20;17.67;17.63;17.46;16.61;13.17;0.70
78736;SPS30;68349;52.124;5.404;2023-05-16T04:42:20;3.73;3.46;2.90;2.10;16.81;16.77;16.62;15.86;12.65;0.70
78736;SPS30;68349;52.124;5.404;2023-05-16T04:44:47;3.52;3.27;2.77;2.05;16.41;16.38;16.24;15.56;12.51;0.69
78736;SPS30;68349;52.124;5.404;2023-05-16T04:47:14;4.01;3.72;3.11;2.25;18.06;18.02;17.86;17.04;13.59;0.70
78736;SPS30;68349;52.124;5.404;2023-05-16T04:49:40;4.22;3.90;3.23;2.29;18.39;18.35;18.17;17.27;13.66;0.70
78736;SPS30;68349;52.124;5.404;2023-05-16T04:52:07;4.22;3.88;3.19;2.22;17.84;17.79;17.61;16.68;13.10;0.70
78736;SPS30;68349;52.124;5.404;2023-05-16T04:54:34;4.77;4.36;3.52;2.38;19.10;19.05;18.83;17.72;13.71;0.73
78736;SPS30;68349;52.124;5.404;2023-05-16T04:57:01;4.37;4.00;3.26;2.23;17.92;17.88;17.68;16.69;12.99;0.72
78736;SPS30;68349;52.124;5.404;2023-05-16T04:59:27;3.79;3.50;2.90;2.06;16.53;16.50;16.33;15.53;12.29;0.72
78736;SPS30;68349;52.124;5.404;2023-05-16T05:01:54;4.28;3.93;3.21;2.22;17.81;17.77;17.58;16.62;12.99;0.74
78736;SPS30;68349;52.124;5.404;2023-05-16T05:04:21;4.21;3.87;3.18;2.23;17.86;17.82;17.63;16.71;13.13;0.74
78736;SPS30;68349;52.124;5.404;2023-05-16T05:06:48;3.61;3.35;2.84;2.09;16.74;16.71;16.57;15.86;12.74;0.68
78736;SPS30;68349;52.124;5.404;2023-05-16T05:09:14;3.78;3.52;3.00;2.23;17.89;17.86;17.72;17.00;13.71;0.67
78736;SPS30;68349;52.124;5.404;2023-05-16T05:11:41;4.10;3.80;3.17;2.28;18.30;18.26;18.09;17.24;13.72;0.70
78736;SPS30;68349;52.124;5.404;2023-05-16T05:14:08;3.99;3.68;3.04;2.15;17.22;17.18;17.01;16.15;12.75;0.72
78736;SPS30;68349;52.124;5.404;2023-05-16T05:16:34;3.83;3.53;2.92;2.05;16.48;16.44;16.27;15.45;12.18;0.72
78736;SPS30;68349;52.124;5.404;2023-05-16T05:19:02;4.07;3.75;3.09;2.17;17.38;17.34;17.16;16.27;12.80;0.72
78736;SPS30;68349;52.124;5.404;2023-05-16T05:21:29;3.67;3.38;2.78;1.94;15.59;15.55;15.39;14.59;11.47;0.73
78736;SPS30;68349;52.124;5.404;2023-05-16T05:23:56;4.10;3.76;3.07;2.12;17.01;16.97;16.78;15.87;12.39;0.74
78736;SPS30;68349;52.124;5.404;2023-05-16T05:26:23;4.16;3.82;3.12;2.15;17.30;17.25;17.07;16.14;12.61;0.76
78736;SPS30;68349;52.124;5.404;2023-05-16T05:28:51;4.18;3.80;3.02;1.97;15.83;15.78;15.57;14.55;11.07;0.79
78736;SPS30;68349;52.124;5.404;2023-05-16T05:31:31;4.48;4.06;3.18;2.01;16.17;16.12;15.88;14.74;11.02;0.80
78736;SPS30;68349;52.124;5.404;2023-05-16T05:34:00;4.40;3.99;3.15;2.02;16.24;16.19;15.96;14.86;11.20;0.79
78736;SPS30;68349;52.124;5.404;2023-05-16T05:36:26;4.58;4.15;3.28;2.11;16.94;16.89;16.65;15.51;11.71;0.79
78736;SPS30;68349;52.124;5.404;2023-05-16T05:38:53;4.35;3.95;3.14;2.04;16.37;16.32;16.10;15.03;11.41;0.77
78736;SPS30;68349;52.124;5.404;2023-05-16T05:41:20;4.09;3.71;2.96;1.93;15.50;15.45;15.25;14.25;10.84;0.76
78736;SPS30;68349;52.124;5.404;2023-05-16T05:43:47;4.01;3.64;2.90;1.89;15.16;15.12;14.92;13.94;10.59;0.76
78736;SPS30;68349;52.124;5.404;2023-05-16T05:46:14;4.29;3.90;3.11;2.03;16.35;16.30;16.09;15.05;11.46;0.76
78736;SPS30;68349;52.124;5.404;2023-05-16T05:48:42;4.09;3.73;2.98;1.96;15.78;15.74;15.54;14.55;11.12;0.75
78736;SPS30;68349;52.124;5.404;2023-05-16T05:51:09;4.45;4.03;3.17;2.01;16.13;16.07;15.84;14.71;11.02;0.77
78736;SPS30;68349;52.124;5.404;2023-05-16T05:53:36;4.62;4.17;3.25;2.02;16.28;16.22;15.97;14.77;10.96;0.79
78736;SPS30;68349;52.124;5.404;2023-05-16T05:56:03;4.26;3.86;3.05;1.95;15.67;15.62;15.41;14.34;10.80;0.77
78736;SPS30;68349;52.124;5.404;2023-05-16T05:58:29;4.06;3.70;2.97;1.97;15.82;15.78;15.58;14.61;11.21;0.75
78736;SPS30;68349;52.124;5.404;2023-05-16T06:00:56;4.13;3.76;3.01;2.00;16.07;16.02;15.82;14.83;11.38;0.74
78736;SPS30;68349;52.124;5.404;2023-05-16T06:03:23;4.06;3.71;2.99;2.00;16.04;16.00;15.80;14.85;11.43;0.75
78736;SPS30;68349;52.124;5.404;2023-05-16T06:05:49;4.22;3.83;3.02;1.94;15.62;15.57;15.36;14.30;10.80;0.78
78736;SPS30;68349;52.124;5.404;2023-05-16T06:08:17;3.71;3.37;2.68;1.75;14.05;14.01;13.82;12.92;9.82;0.77
78736;SPS30;68349;52.124;5.404;2023-05-16T06:10:43;3.40;3.11;2.52;1.71;13.74;13.70;13.54;12.76;9.90;0.73
78736;SPS30;68349;52.124;5.404;2023-05-16T06:13:10;3.53;3.22;2.59;1.73;13.87;13.83;13.66;12.83;9.86;0.75
78736;SPS30;68349;52.124;5.404;2023-05-16T06:15:37;3.36;3.07;2.47;1.65;13.24;13.21;13.05;12.25;9.43;0.74
78736;SPS30;68349;52.124;5.404;2023-05-16T06:18:03;3.42;3.11;2.48;1.63;13.06;13.02;12.86;12.03;9.17;0.76
78736;SPS30;68349;52.124;5.404;2023-05-16T06:20:30;3.56;3.24;2.58;1.68;13.50;13.46;13.28;12.41;9.43;0.76
78736;SPS30;68349;52.124;5.404;2023-05-16T06:22:57;3.19;2.90;2.31;1.51;12.12;12.08;11.92;11.14;8.48;0.76
78736;SPS30;68349;52.124;5.404;2023-05-16T06:25:23;3.26;2.96;2.34;1.50;12.06;12.02;11.86;11.04;8.33;0.76
78736;SPS30;68349;52.124;5.404;2023-05-16T06:27:51;3.74;3.38;2.66;1.69;13.59;13.55;13.35;12.40;9.30;0.77
78736;SPS30;68349;52.124;5.404;2023-05-16T06:30:17;4.14;3.74;2.92;1.83;14.72;14.67;14.45;13.39;9.96;0.79
78736;SPS30;68349;52.124;5.404;2023-05-16T06:32:44;3.29;2.97;2.32;1.46;11.71;11.67;11.50;10.65;7.93;0.79
78736;SPS30;68349;52.124;5.404;2023-05-16T06:35:11;3.42;3.09;2.41;1.51;12.16;12.12;11.94;11.05;8.23;0.81
78736;SPS30;68349;52.124;5.404;2023-05-16T06:37:37;3.87;3.50;2.73;1.70;13.70;13.65;13.44;12.44;9.24;0.82
78736;SPS30;68349;52.124;5.404;2023-05-16T06:40:07;3.71;3.35;2.61;1.63;13.13;13.08;12.89;11.92;8.86;0.82
78736;SPS30;68349;52.124;5.404;2023-05-16T06:42:34;3.72;3.36;2.62;1.63;13.15;13.11;12.91;11.95;8.88;0.82
78736;SPS30;68349;52.124;5.404;2023-05-16T06:45:01;3.73;3.36;2.60;1.59;12.83;12.78;12.58;11.59;8.52;0.83
78736;SPS30;68349;52.124;5.404;2023-05-16T06:47:28;3.16;2.86;2.25;1.42;11.44;11.40;11.24;10.43;7.81;0.80
78736;SPS30;68349;52.124;5.404;2023-05-16T06:49:55;3.36;3.03;2.36;1.47;11.82;11.78;11.60;10.72;7.95;0.82
78736;SPS30;68349;52.124;5.404;2023-05-16T06:52:21;3.52;3.17;2.43;1.46;11.79;11.74;11.55;10.59;7.71;0.83
78736;SPS30;68349;52.124;5.404;2023-05-16T06:54:48;3.64;3.28;2.56;1.60;12.84;12.80;12.61;11.66;8.66;0.81
78736;SPS30;68349;52.124;5.404;2023-05-16T06:57:15;3.16;2.86;2.24;1.42;11.41;11.38;11.21;10.41;7.79;0.79
78736;SPS30;68349;52.124;5.404;2023-05-16T06:59:41;3.27;2.95;2.31;1.45;11.65;11.61;11.44;10.60;7.90;0.81
78736;SPS30;68349;52.124;5.404;2023-05-16T07:02:08;3.00;2.71;2.12;1.33;10.70;10.66;10.50;9.73;7.25;0.82
78736;SPS30;68349;52.124;5.404;2023-05-16T07:04:35;3.24;2.93;2.30;1.46;11.74;11.70;11.54;10.71;8.03;0.80
78736;SPS30;68349;52.124;5.404;2023-05-16T07:07:03;3.34;3.02;2.36;1.48;11.92;11.88;11.70;10.84;8.08;0.81
78736;SPS30;68349;52.124;5.404;2023-05-16T07:09:32;3.40;3.06;2.38;1.48;11.87;11.83;11.65;10.76;7.96;0.82
78736;SPS30;68349;52.124;5.404;2023-05-16T07:11:59;3.30;2.97;2.30;1.40;11.27;11.23;11.05;10.17;7.46;0.84
78736;SPS30;68349;52.124;5.404;2023-05-16T07:14:26;2.83;2.55;1.98;1.22;9.80;9.77;9.62;8.87;6.54;0.83
78736;SPS30;68349;52.124;5.404;2023-05-16T07:16:52;2.87;2.59;2.02;1.25;10.09;10.06;9.90;9.16;6.79;0.82
78736;SPS30;68349;52.124;5.404;2023-05-16T07:19:19;3.01;2.72;2.13;1.34;10.76;10.72;10.56;9.79;7.29;0.80
78736;SPS30;68349;52.124;5.404;2023-05-16T07:21:46;2.76;2.50;1.98;1.27;10.23;10.19;10.05;9.37;7.07;0.78
78736;SPS30;68349;52.124;5.404;2023-05-16T07:24:13;2.65;2.40;1.88;1.19;9.61;9.58;9.44;8.76;6.57;0.81
78736;SPS30;68349;52.124;5.404;2023-05-16T07:26:39;2.97;2.69;2.13;1.37;10.99;10.95;10.80;10.06;7.59;0.81
78736;SPS30;68349;52.124;5.404;2023-05-16T07:29:06;2.80;2.55;2.03;1.33;10.66;10.62;10.49;9.80;7.46;0.80
78736;SPS30;68349;52.124;5.404;2023-05-16T07:31:33;2.49;2.26;1.77;1.13;9.06;9.03;8.90;8.26;6.20;0.82
78736;SPS30;68349;52.124;5.404;2023-05-16T07:33:59;2.88;2.60;2.01;1.23;9.93;9.89;9.73;8.97;6.60;0.85
78736;SPS30;68349;52.124;5.404;2023-05-16T07:36:26;2.40;2.16;1.66;1.00;8.08;8.05;7.91;7.27;5.30;0.86
78736;SPS30;68349;52.124;5.404;2023-05-16T07:38:53;2.80;2.52;1.95;1.18;9.54;9.50;9.35;8.60;6.30;0.84
78736;SPS30;68349;52.124;5.404;2023-05-16T07:41:19;2.79;2.52;1.96;1.22;9.81;9.78;9.63;8.90;6.60;0.81
78736;SPS30;68349;52.124;5.404;2023-05-16T07:43:46;3.07;2.77;2.15;1.33;10.70;10.66;10.50;9.69;7.17;0.82
78736;SPS30;68349;52.124;5.404;2023-05-16T07:46:13;2.59;2.33;1.81;1.11;8.96;8.92;8.78;8.10;5.97;0.83
78736;SPS30;68349;52.124;5.404;2023-05-16T07:48:40;2.99;2.69;2.08;1.28;10.27;10.23;10.07;9.27;6.81;0.83
78736;SPS30;68349;52.124;5.404;2023-05-16T07:51:06;2.72;2.46;1.92;1.20;9.66;9.63;9.48;8.78;6.53;0.80
78736;SPS30;68349;52.124;5.404;2023-05-16T07:53:33;2.79;2.52;1.98;1.25;10.05;10.02;9.88;9.16;6.85;0.79
78736;SPS30;68349;52.124;5.404;2023-05-16T07:56:00;2.65;2.40;1.89;1.21;9.72;9.69;9.56;8.89;6.69;0.78
78736;SPS30;68349;52.124;5.404;2023-05-16T07:58:26;2.48;2.25;1.77;1.13;9.08;9.05;8.93;8.30;6.24;0.78
78736;SPS30;68349;52.124;5.404;2023-05-16T08:00:53;2.59;2.35;1.87;1.22;9.81;9.78;9.66;9.02;6.86;0.76
78736;SPS30;68349;52.124;5.404;2023-05-16T08:03:20;2.88;2.62;2.09;1.37;10.98;10.95;10.81;10.10;7.70;0.77
78736;SPS30;68349;52.124;5.404;2023-05-16T08:05:47;2.95;2.67;2.10;1.34;10.76;10.72;10.57;9.82;7.37;0.81
78736;SPS30;68349;52.124;5.404;2023-05-16T08:08:14;2.53;2.29;1.82;1.18;9.50;9.47;9.34;8.72;6.61;0.80
78736;SPS30;68349;52.124;5.404;2023-05-16T08:10:41;2.70;2.46;1.96;1.29;10.37;10.34;10.21;9.55;7.29;0.77
78736;SPS30;68349;52.124;5.404;2023-05-16T08:13:07;2.73;2.49;1.99;1.32;10.57;10.54;10.41;9.75;7.46;0.77
78736;SPS30;68349;52.124;5.404;2023-05-16T08:15:34;2.73;2.48;1.97;1.28;10.32;10.28;10.15;9.48;7.20;0.78
78736;SPS30;68349;52.124;5.404;2023-05-16T08:18:02;2.87;2.60;2.05;1.31;10.50;10.47;10.32;9.59;7.21;0.81
78736;SPS30;68349;52.124;5.404;2023-05-16T08:20:29;2.59;2.34;1.84;1.17;9.45;9.42;9.28;8.63;6.49;0.80
78736;SPS30;68349;52.124;5.404;2023-05-16T08:22:55;2.77;2.52;2.00;1.30;10.46;10.43;10.29;9.61;7.30;0.78
78736;SPS30;68349;52.124;5.404;2023-05-16T08:25:22;2.84;2.58;2.06;1.35;10.85;10.82;10.68;9.99;7.62;0.77
78736;SPS30;68349;52.124;5.404;2023-05-16T08:27:49;2.61;2.37;1.89;1.24;9.98;9.95;9.82;9.19;7.01;0.77
78736;SPS30;68349;52.124;5.404;2023-05-16T08:30:16;2.48;2.26;1.83;1.23;9.87;9.84;9.73;9.15;7.07;0.74
78736;SPS30;68349;52.124;5.404;2023-05-16T08:32:43;2.82;2.59;2.11;1.44;11.60;11.57;11.44;10.80;8.42;0.74
78736;SPS30;68349;52.124;5.404;2023-05-16T08:35:09;2.78;2.54;2.04;1.36;10.94;10.91;10.77;10.12;7.78;0.76
78736;SPS30;68349;52.124;5.404;2023-05-16T08:37:38;2.52;2.30;1.86;1.25;10.05;10.02;9.90;9.31;7.19;0.75
78736;SPS30;68349;52.124;5.404;2023-05-16T08:40:05;2.35;2.14;1.72;1.14;9.20;9.17;9.06;8.50;6.52;0.76
78736;SPS30;68349;52.124;5.404;2023-05-16T08:42:34;2.73;2.47;1.95;1.25;10.02;9.99;9.85;9.16;6.90;0.78
78736;SPS30;68349;52.124;5.404;2023-05-16T08:45:02;2.53;2.30;1.82;1.17;9.43;9.40;9.27;8.64;6.53;0.77
78736;SPS30;68349;52.124;5.404;2023-05-16T08:47:30;2.87;2.59;2.01;1.25;10.04;10.01;9.86;9.11;6.74;0.80
78736;SPS30;68349;52.124;5.404;2023-05-16T08:49:58;2.98;2.68;2.07;1.26;10.18;10.14;9.98;9.19;6.74;0.83
78736;SPS30;68349;52.124;5.404;2023-05-16T08:52:28;3.06;2.77;2.16;1.36;10.92;10.89;10.73;9.94;7.41;0.81
78736;SPS30;68349;52.124;5.404;2023-05-16T08:54:58;3.04;2.75;2.16;1.37;10.98;10.95;10.79;10.02;7.50;0.82
78736;SPS30;68349;52.124;5.404;2023-05-16T08:57:37;2.81;2.54;1.99;1.25;10.02;9.99;9.84;9.12;6.79;0.82
78736;SPS30;68349;52.124;5.404;2023-05-16T09:00:06;2.81;2.54;2.00;1.27;10.20;10.16;10.02;9.30;6.98;0.81
78736;SPS30;68349;52.124;5.404;2023-05-16T09:02:38;2.85;2.59;2.05;1.33;10.68;10.64;10.50;9.80;7.42;0.79
78736;SPS30;68349;52.124;5.404;2023-05-16T09:05:10;2.74;2.48;1.95;1.24;9.97;9.94;9.80;9.11;6.83;0.79
78736;SPS30;68349;52.124;5.404;2023-05-16T09:07:39;2.92;2.63;2.03;1.24;10.02;9.98;9.82;9.05;6.65;0.82
78736;SPS30;68349;52.124;5.404;2023-05-16T09:10:07;2.81;2.53;1.97;1.21;9.75;9.71;9.56;8.82;6.51;0.82
78736;SPS30;68349;52.124;5.404;2023-05-16T09:12:35;2.79;2.51;1.95;1.20;9.67;9.63;9.48;8.75;6.46;0.82
78736;SPS30;68349;52.124;5.404;2023-05-16T09:15:02;2.94;2.64;2.03;1.22;9.86;9.82;9.66;8.87;6.46;0.84
78736;SPS30;68349;52.124;5.404;2023-05-16T09:17:35;2.94;2.64;2.01;1.19;9.55;9.52;9.35;8.53;6.13;0.85
78736;SPS30;68349;52.124;5.404;2023-05-16T09:22:37;2.58;2.31;1.74;1.00;8.09;8.06;7.91;7.18;5.08;0.89
78736;SPS30;68349;52.124;5.404;2023-05-16T09:25:04;2.77;2.48;1.88;1.09;8.82;8.78;8.62;7.85;5.60;0.87
78736;SPS30;68349;52.124;5.404;2023-05-16T09:27:38;2.93;2.62;2.00;1.18;9.47;9.43;9.27;8.46;6.07;0.87